Aviation Digital Data Service (ADDS)

Output produced by METARs form (0050 UTC 30 March 2017)
found at http://www.aviationweather.gov/adds/metars/
 
KTHV 292353Z AUTO 04006KT 10SM CLR 11/00 A3017 RMK AO2 SLP220 T01060000 10150 20106 53016
KTHV 292253Z AUTO 01007KT 10SM CLR 12/00 A3015 RMK AO2 SLP212 T01220000
KTHV 292153Z AUTO 02011G15KT 10SM CLR 14/01 A3013 RMK AO2 SLP207 T01390006
KTHV 292053Z AUTO 01009G19KT 320V040 10SM CLR 14/01 A3012 RMK AO2 SLP202 T01440011 55005
KTHV 291953Z AUTO 05011G17KT 10SM CLR 15/02 A3011 RMK AO2 SLP199 T01500017
KTHV 291853Z AUTO 35010KT 10SM CLR 14/02 A3012 RMK AO2 SLP203 T01440017
KTHV 291753Z AUTO VRB04KT 10SM CLR 13/01 A3014 RMK AO2 SLP207 T01330011 10139 20078 58005
KTHV 291653Z AUTO 36014G21KT 10SM CLR 12/01 A3015 RMK AO2 SLP211 T01220011
KTHV 291553Z AUTO 01008KT 10SM CLR 12/01 A3015 RMK AO2 SLP213 T01170011
KTHV 291453Z AUTO 34011G19KT 10SM CLR 11/02 A3015 RMK AO2 SLP213 T01110022 51013
KTHV 291353Z AUTO 36012KT 10SM CLR 10/03 A3015 RMK AO2 SLP212 T01000028
KTHV 291253Z AUTO 35009KT 10SM SCT030 09/03 A3012 RMK AO2 SLP204 T00890028
KTHV 291220Z AUTO 34007KT 10SM OVC030 08/03 A3012 RMK AO2 T00830028
KTHV 291153Z AUTO 36005KT 10SM OVC029 08/03 A3011 RMK AO2 SLP201 70055 T00830033 10122 20072 53014
KTHV 291102Z AUTO 01008KT 10SM BKN028 07/03 A3010 RMK AO2 T00720028
KTHV 291053Z AUTO VRB05KT 10SM SCT026 07/03 A3009 RMK AO2 SLP194 T00720028
KTHV 291051Z AUTO 02007KT 350V050 10SM SCT026 07/03 A3009 RMK AO2
KTHV 291043Z AUTO 01006KT 10SM BKN026 07/04 A3008 RMK AO2 T00720039
KTHV 291036Z AUTO 02008KT 10SM SCT026 07/04 A3008 RMK AO2 T00720039
KTHV 291001Z AUTO 36007KT 10SM BKN029 08/04 A3007 RMK AO2 T00780044
KTHV 290953Z AUTO 36007KT 10SM SCT030 08/04 A3007 RMK AO2 SLP187 T00780044
KTHV 290853Z AUTO 36010KT 10SM OVC039 09/06 A3005 RMK AO2 SLP178 T00940061 53021
KTHV 290753Z AUTO 35010KT 10SM OVC040 11/07 A3002 RMK AO2 SLP169 T01060072
KTHV 290738Z AUTO 35011G19KT 10SM SCT027 OVC038 11/08 A3001 RMK AO2 T01110078
KTHV 290653Z AUTO 02005KT 10SM SCT021 OVC028 12/09 A3001 RMK AO2 SLP164 T01170094
KTHV 290553Z AUTO 35005KT 10SM BKN029 OVC039 12/10 A2999 RMK AO2 SLP157 T01220100 10139 20106 51012 TSNO
KTHV 290453Z AUTO 35005KT 10SM OVC038 13/11 A2998 RMK AO2 SLP155 T01280111 401440067 TSNO
KTHV 290353Z AUTO 34007KT 10SM OVC044 14/12 A2997 RMK AO2 SLP151 T01390117 TSNO
KTHV 290253Z AUTO 00000KT 7SM OVC055 12/12 A2995 RMK AO2 SLP145 T01220122 51020
KTHV 290153Z AUTO 00000KT 7SM OVC055 12/12 A2994 RMK AO2 SLP142 T01220122
KTHV 290053Z AUTO 00000KT 5SM BR FEW041 BKN060 BKN120 11/11 A2992 RMK AO2 SLP135 T01110111
KTHV 282353Z AUTO 04003KT 9SM FEW038 BKN060 OVC080 13/13 A2989 RMK AO2 SLP124 60000 T01330133 10144 20128 51016
KTHV 282253Z AUTO 00000KT 7SM FEW012 BKN055 OVC070 14/13 A2988 RMK AO2 SLP122 T01390133
KTHV 282244Z AUTO 00000KT 5SM BR SCT014 BKN031 OVC055 14/14 A2988 RMK AO2 T01390139
KTHV 282153Z AUTO 03003KT 10SM SCT009 BKN024 OVC038 14/13 A2986 RMK AO2 SLP113 T01390133
KTHV 282133Z AUTO 36006KT 10SM BKN009 BKN025 OVC036 14/13 A2986 RMK AO2 T01440133
KTHV 282108Z AUTO 01003KT 10SM FEW008 OVC028 14/13 A2985 RMK AO2 T01440133
KTHV 282053Z AUTO 36006KT 10SM OVC031 14/13 A2984 RMK AO2 RAE1954 SLP108 P0000 60000 T01440133 53001
KTHV 282040Z AUTO 36004KT 10SM FEW015 OVC031 14/13 A2984 RMK AO2 RAE1954 P0000 T01440133
KTHV 282024Z AUTO 36004KT 9SM BKN015 OVC029 14/13 A2984 RMK AO2 RAE1954 P0000 T01440128
KTHV 281953Z AUTO 00000KT 8SM -RA BKN011 OVC027 14/13 A2984 RMK AO2 RAB44 SLP108 P0000 T01390128
KTHV 281950Z AUTO 00000KT 6SM -RA BR BKN011 OVC025 14/13 A2984 RMK AO2 RAB44 P0000
KTHV 281923Z AUTO 34003KT 6SM BR SCT006 OVC023 14/13 A2984 RMK AO2 T01390128
KTHV 281853Z AUTO 00000KT 6SM BR BKN007 OVC017 13/13 A2984 RMK AO2 RAE46 SLP109 P0000 T01330128
KTHV 281805Z AUTO 05003KT 3SM -RA BR OVC006 13/12 A2985 RMK AO2 P0000 T01280122 $
KTHV 281753Z AUTO 08004KT 4SM -RA BR 13/12 A2985 RMK AO2 RAB21B30 SLP110 P0000 60055 T01280122 10128 20106 $
KTHV 281714Z AUTO VRB03KT 10SM OVC006 13/12 A2985 RMK AO2 T01280122
KTHV 281653Z AUTO 00000KT 10SM OVC005 12/12 A2985 RMK AO2 RAE45 CIG 004V008 SLP109 P0003 T01220122
KTHV 281646Z AUTO 32004KT 10SM OVC005 12/12 A2985 RMK AO2 RAE45 P0003 T01220122
KTHV 281616Z AUTO 32006KT 5SM -RA BR BKN004 BKN055 OVC080 12/12 A2984 RMK AO2 P0002 T01170117
KTHV 281553Z AUTO 01008KT 3SM RA BR SCT004 BKN075 OVC090 11/11 A2983 RMK AO2 PRESFR SLP105 P0021 T01110111
KTHV 281546Z AUTO 36011KT 2 1/2SM RA BR BKN004 BKN041 OVC085 11/11 A2984 RMK AO2 PRESFR P0019 T01110111
KTHV 281534Z AUTO 33004KT 1 1/2SM RA BR BKN004 BKN008 OVC031 11/11 A2987 RMK AO2 P0017 T01110111
KTHV 281527Z AUTO 34003KT 1SM +RA BR BKN004 OVC008 11/11 A2987 RMK AO2 P0015 T01110111
KTHV 281517Z AUTO 00000KT 1 1/4SM RA BR BKN004 BKN009 OVC041 11/11 A2987 RMK AO2 P0010 T01060106
KTHV 281508Z AUTO 00000KT 1 1/4SM +RA BR BKN005 BKN009 OVC050 11/11 A2988 RMK AO2 P0006 T01060106
KTHV 281457Z AUTO 08003KT 1SM RA BR BKN005 BKN031 OVC050 11/11 A2988 RMK AO2 P0001 T01060106
KTHV 281453Z AUTO 09004KT 3/4SM RA BR SCT005 BKN033 OVC050 11/11 A2988 RMK AO2 RAB12 SLP120 P0027 60031 T01060106 53006
KTHV 281429Z AUTO 00000KT 3/4SM +RA BR OVC003 11/11 A2989 RMK AO2 LTG DSNT E AND SE RAB12 P0006 T01060106
KTHV 281353Z AUTO 05003KT 1 1/4SM BR OVC002 11/11 A2987 RMK AO2 LTG DSNT SE-SW RAE07 TSE1259 SLP118 P0000 T01110111
KTHV 281334Z AUTO 03004KT 1SM BR OVC002 11/11 A2987 RMK AO2 RAE07 TSE1259 P0000 T01060106
KTHV 281325Z AUTO 00000KT 1 1/4SM BR OVC002 11/11 A2988 RMK AO2 RAE07 TSE1259 P0000 T01060106
KTHV 281318Z AUTO 32004KT 1SM BR OVC002 11/11 A2987 RMK AO2 RAE07 TSE1259 P0000 T01060106
KTHV 281307Z AUTO 35007KT 1 1/4SM BR OVC002 11/11 A2986 RMK AO2 RAE07 TSE1259 P0000 T01110111
KTHV 281301Z AUTO 1SM VCTS -RA BR OVC002 11/11 A2985 RMK AO2 TSE1259 P0000 T01110111
KTHV 281253Z AUTO 36008KT 3/4SM TSRA BR OVC002 11/11 A2985 RMK AO2 RAB17 TSB44 SLP110 P0004 T01110111